Metar Cercanos

 

LEPA - Palma De Mallorc, Spain
Distance from station: ONO 38km
Actualización: 20/10/2018 19:30
Few Clouds
Few Clouds
 Viento del ENE
Viento: ENE 11 km/h
Temperatura: 21°C
Rocío: 20°C
Humedad: 94%
Barómetro: 1020 hPa
Clouds: Few Clouds
Visibility: 10 km
Cloud details: Few Clouds 914 m
2018/10/20 17:30 LEPA 201730Z 06006KT 9999 FEW030 21/20 Q1020 NOSIG
LEMH - Mahon/Menorca Is, Spain
Distance from station: ENE 105km
Actualización: 20/10/2018 19:30
Parcialmente nuboso
Parcialmente nuboso
 Viento del ENE
Viento: ENE 6 km/h
Temperatura: 21°C
Rocío: 19°C
Humedad: 88%
Barómetro: 1021 hPa
Clouds: Parcialmente nuboso
Visibility: 10 km
Cloud details: Parcialmente nuboso 335 m
2018/10/20 17:30 LEMH 201730Z 07003KT 9999 SCT011 21/19 Q1021
 
LEIB - Ibiza/Es Codola, Spain
Distance from station: OSO 165km
Actualización: 20/10/2018 19:30
Few Clouds
Few Clouds
 Viento del ENE
Viento: ENE 22 km/h
Temperatura: 22°C
Rocío: 19°C
Humedad: 83%
Barómetro: 1019 hPa
Clouds: Few Clouds
Visibility: 10 km
Cloud details: Few Clouds 488 m
2018/10/20 17:30 LEIB 201730Z 06012KT 040V100 9999 FEW016 22/19 Q1019 NOSIG
LEBL - Barcelona Airpor, Spain
Distance from station: NNO 225km
Actualización: 20/10/2018 19:30
Despejado
Despejado
 Viento del NE
Viento: NE 9 km/h
Temperatura: 20°C
Rocío: 17°C
Humedad: 83%
Barómetro: 1022 hPa
Resumen: Despejado
Visibility: greater than 10 km
2018/10/20 17:30 LEBL 201730Z 05005KT CAVOK 20/17 Q1022 NOSIG
 
LEVC - Valencia (civ/Mi, Spain
Distance from station: NO 188km
Actualización: 20/10/2018 19:30
Parcialmente nuboso
Parcialmente nuboso
 Viento del NE
Viento: NE 17 km/h
Temperatura: 21°C
Rocío: 18°C
Humedad: 83%
Barómetro: 1021 hPa
Clouds: Parcialmente nuboso
Visibility: 10 km
Cloud details: Few Clouds 457 m
Parcialmente nuboso 1219 m
2018/10/20 17:30 LEVC 201730Z 05009KT 9999 FEW015 SCT040 21/18 Q1021 TEMPO FEW025TCU
LEGE - Gerona/Costa Bra, Spain
Distance from station: N 276km
Actualización: 20/10/2018 19:30
Despejado
Despejado
 Viento del varies
Viento: varies 4 km/h
Temperatura: 19°C
Rocío: 15°C
Humedad: 78%
Barómetro: 1022 hPa
Resumen: Despejado
Visibility: greater than 10 km
2018/10/20 17:30 LEGE 201730Z VRB02KT CAVOK 19/15 Q1022
 
LEAL - Alicante/El Alte, Spain
Distance from station: OSO 344km
Actualización: 20/10/2018 19:30
Despejado
Despejado
 Viento del ENE
Viento: ENE 30 km/h
Temperatura: 22°C
Rocío: 18°C
Humedad: 78%
Barómetro: 1018 hPa
Resumen: Despejado
Visibility: greater than 10 km
2018/10/20 17:30 LEAL 201730Z 07016KT CAVOK 22/18 Q1018 NOSIG
LEAM - Almeria Airport, Spain
Distance from station: SSO 56km
Actualización: 20/10/2018 19:30
Few Clouds
Few Clouds
 Viento del NE
Viento: NE 30 km/h
Temperatura: 22°C
Rocío: 17°C
Humedad: 73%
Barómetro: 1015 hPa
Clouds: Few Clouds
Visibility: 10 km
Cloud details: Few Clouds 610 m
Few Clouds 1524 m
2018/10/20 17:30 LEAM 201730Z 05016KT 9999 FEW020 FEW050TCU 22/17 Q1015
 
LEZG - Zaragoza (mil/Ci, Spain
Distance from station: NO 431km
Actualización: 20/10/2018 19:30
Few Clouds
Few Clouds
 Viento del ENE
Viento: ENE 4 km/h
Temperatura: 20°C
Rocío: 15°C
Humedad: 73%
Barómetro: 1022 hPa
Clouds: Few Clouds
Visibility: 10 km
Cloud details: Few Clouds 914 m
2018/10/20 17:30 LEZG 201730Z 06002KT 9999 FEW030 20/15 Q1022
LEMD - Madrid/Barajas, Spain
Distance from station: ONO 234km
Actualización: 20/10/2018 19:30
Lluvia débil, Muy nuboso
Lluvia débil, Muy nuboso
 Viento del NNE
Viento: NNE 6 km/h
Temperatura: 16°C
Rocío: 16°C
Humedad: 100%
Barómetro: 1020 hPa
Resumen: Lluvia débil
Clouds: Muy nuboso
Visibility: 9 km
Cloud details: Few Clouds 1067 m
Parcialmente nuboso 1524 m
Muy nuboso 1981 m
2018/10/20 17:30 LEMD 201730Z 03003KT 360V080 9000 -RA FEW035 SCT050CB BKN065 16/16 Q1020 R88/29//95 BECMG TS
 
LEGR - Granada Airport, Spain
Distance from station: OSO 62km
Actualización: 20/10/2018 19:30
Parcialmente nuboso
Parcialmente nuboso
 Viento del varies
Viento: varies 2 km/h
Temperatura: 15°C
Rocío: 13°C
Humedad: 88%
Barómetro: 1015 hPa
Clouds: Parcialmente nuboso
Visibility: 10 km
Cloud details: Few Clouds 610 m
Parcialmente nuboso 2438 m
2018/10/20 17:30 LEGR 201730Z VRB01KT 9999 FEW020 SCT080 15/13 Q1015
LEMG - Malaga (civ/Mil), Spain
Distance from station: OSO 227km
Actualización: 20/10/2018 19:30
Parcialmente nuboso
Parcialmente nuboso
 Viento del SE
Viento: SE 19 km/h
Temperatura: 21°C
Rocío: 18°C
Humedad: 83%
Barómetro: 1014 hPa
Clouds: Parcialmente nuboso
Visibility: 10 km
Cloud details: Few Clouds 671 m
Parcialmente nuboso 1829 m
2018/10/20 17:30 LEMG 201730Z 14010KT 110V170 9999 FEW022 SCT060 21/18 Q1014 NOSIG
 
LEZL - Sevilla (civ/Mil, Spain
Distance from station: S 318km
Actualización: 20/10/2018 19:30
Lluvia débil, Parcialmente nuboso
Lluvia débil, Parcialmente nuboso
 Viento del NE
Viento: NE 24 km/h
Temperatura: 15°C
Rocío: 14°C
Humedad: 94%
Barómetro: 1015 hPa
Resumen: Lluvia débil
Clouds: Parcialmente nuboso
Visibility: 9 km
Cloud details: Few Clouds 152 m
Parcialmente nuboso 1067 m
2018/10/20 17:30 LEZL 201730Z 05013KT 9000 -RA FEW005 SCT035CB 15/14 Q1015 RETSRA TEMPO 3000 TSRA
LEVT - Vitoria, Spain
Distance from station: NO 226km
Actualización: 20/10/2018 19:30
Muy nuboso
Muy nuboso
 Viento del N
Viento: N 7 km/h
Temperatura: 16°C
Rocío: 13°C
Humedad: 83%
Barómetro: 1024 hPa
Clouds: Muy nuboso
Visibility: 8 km
Cloud details: Muy nuboso 457 m
2018/10/20 17:30 LEVT 201730Z 35004KT 8000 BKN015 16/13 Q1024
 
LEBB - Bilbao/Sondica, Spain
Distance from station: NNO 235km
Actualización: 20/10/2018 19:30
Muy nuboso
Muy nuboso
 Viento del calm
Viento: Calma
Temperatura: 18°C
Rocío: 16°C
Humedad: 88%
Barómetro: 1024 hPa
Clouds: Muy nuboso
Visibility: 7 km
Cloud details: Muy nuboso 884 m
2018/10/20 17:30 LEBB 201730Z 00000KT 7000 BKN029 18/16 Q1024 NOSIG
LESO - San Sebastian/Fu, Spain
Distance from station: N 231km
Actualización: 20/10/2018 19:30
Mist, Few clouds
Mist, Few clouds
 Viento del calm
Viento: Calma
Temperatura: 17°C
Rocío: 16°C
Humedad: 94%
Barómetro: 1024 hPa
Resumen: Mist
Clouds: Few Clouds
Visibility: 4 km
Cloud details: Few Clouds 335 m
2018/10/20 17:30 LESO 201730Z 00000KT 4300 BR FEW011 17/16 Q1024
 
LEVD - Valladolid(Mil/C, Spain
Distance from station: ONO 239km
Actualización: 20/10/2018 19:30
Few Clouds
Few Clouds
 Viento del E
Viento: E 22 km/h
Temperatura: 18°C
Rocío: 9°C
Humedad: 56%
Barómetro: 1021 hPa
Clouds: Few Clouds
Visibility: 10 km
Cloud details: Few Clouds 1250 m
2018/10/20 17:30 LEVD 201730Z 09012KT 9999 FEW041 18/09 Q1021
LESA - Salamanca (civ/M, Spain
Distance from station: ONO 349km
Actualización: 20/10/2018 19:30
Few Clouds
Few Clouds
 Viento del E
Viento: E 17 km/h
Temperatura: 18°C
Rocío: 10°C
Humedad: 60%
Barómetro: 1020 hPa
Clouds: Few Clouds
Visibility: 10 km
Cloud details: Few Clouds 914 m
2018/10/20 17:30 LESA 201730Z 10009KT 060V140 9999 FEW030 18/10 Q1020
 
LEXJ - Santander/Paraya, Spain
Distance from station: NNO 247km
Actualización: 20/10/2018 19:30
Few Clouds
Few Clouds
 Viento del ENE
Viento: ENE 6 km/h
Temperatura: 17°C
Rocío: 17°C
Humedad: 100%
Barómetro: 1023 hPa
Clouds: Few Clouds
Visibility: 6 km
Cloud details: Few Clouds 610 m
2018/10/20 17:30 LEXJ 201730Z 06003KT 360V110 6000 FEW020 17/17 Q1023
LEAS - Asturias/Aviles, Spain
Distance from station: NO 214km
Actualización: 20/10/2018 19:30
Parcialmente nuboso
Parcialmente nuboso
 Viento del E
Viento: E 11 km/h
Temperatura: 16°C
Rocío: 15°C
Humedad: 94%
Barómetro: 1023 hPa
Clouds: Parcialmente nuboso
Visibility: 6 km
Cloud details: Parcialmente nuboso 335 m
Parcialmente nuboso 853 m
2018/10/20 17:30 LEAS 201730Z 09006KT 050V120 6000 SCT011 SCT028 16/15 Q1023 TEMPO BKN012
 
LECO - La Coruna/Alvedr, Spain
Distance from station: ONO 222km
Actualización: 20/10/2018 19:30
Despejado
Despejado
 Viento del NE
Viento: NE 9 km/h
Temperatura: 19°C
Rocío: 13°C
Humedad: 68%
Barómetro: 1021 hPa
Resumen: Despejado
Visibility: greater than 10 km
2018/10/20 17:30 LECO 201730Z 04005KT 350V070 CAVOK 19/13 Q1021 NOSIG
LEVX - Vigo/Peinador, Spain
Distance from station: O 214km
Actualización: 20/10/2018 19:30
Despejado
Despejado
 Viento del ENE
Viento: ENE 11 km/h
Temperatura: 23°C
Rocío: 12°C
Humedad: 50%
Barómetro: 1018 hPa
Resumen: Despejado
Visibility: greater than 10 km
2018/10/20 17:30 LEVX 201730Z 07006KT 030V100 CAVOK 23/12 Q1018 NOSIG